Home   Weather   Germany   Fürstenwalde/Spree   Past weeks
Flag for Germany

Past Weather in Fürstenwalde/Spree, Brandenburg, Germany — Yesterday and Last 2 Weeks

Currently: 72 °F. Clear. (Weather station: Berlin-Schoenefeld, Germany). See more current weather

Past Weather in Fürstenwalde/Spree — Graph

°F

Fürstenwalde/Spree Temperature Yesterday

Maximum temperature yesterday: 75 °F (at 12:20 pm)
Minimum temperature yesterday: 54 °F (at 3:20 am)
Average temperature yesterday: 67 °F

High & Low Weather Summary for the Past Weeks

 TemperatureHumidityPressure
High90 °F (Jul 6, 3:50 pm)100% (Jul 1, 3:20 am)30.09 "Hg (Jul 1, 3:20 am)
Low50 °F (Jul 5, 3:50 am)29% (Jul 15, 3:50 pm)29.53 "Hg (Jul 6, 4:20 pm)
Average67 °F70%29.87 "Hg
* Reported Jun 30 9:20 pm — Jul 15 9:50 pm, Fürstenwalde/Spree. Weather by CustomWeather, © 2024

Note: Actual official high and low records may vary slightly from our data, if they occured in-between our weather recording intervals... More about our weather records

Fürstenwalde/Spree Weather History for the Previous 24 Hours

Scroll right to see more
 ConditionsComfort  
Time TempWeatherWind HumidityBarometerVisibility
9:50 pm
Mon, Jul 15
75 °FClear.3 mph54%29.86 "Hg10 mi
9:20 pm75 °FClear.2 mph54%29.86 "Hg10 mi
8:20 pm81 °FSunny.3 mph42%29.86 "Hg10 mi
7:50 pm82 °FSunny.1 mph37%29.86 "Hg10 mi
7:20 pm84 °FSunny.5 mph35%29.86 "Hg10 mi
6:50 pm82 °FPassing clouds.5 mph40%29.86 "HgN/A
6:20 pm84 °FSunny.3 mph33%29.86 "Hg10 mi
5:50 pm84 °FSunny.6 mph33%29.86 "Hg10 mi
5:20 pm84 °FPassing clouds.7 mph35%29.89 "HgN/A
4:20 pm84 °FPassing clouds.5 mph33%29.89 "HgN/A
3:50 pm84 °FPassing clouds.9 mph29%29.89 "HgN/A
3:20 pm84 °FPassing clouds.8 mph35%29.89 "HgN/A
2:50 pm84 °FPassing clouds.9 mph33%29.89 "HgN/A
2:20 pm82 °FPassing clouds.10 mph35%29.89 "HgN/A
1:50 pm82 °FPassing clouds.8 mph35%29.92 "HgN/A
1:20 pm82 °FPassing clouds.10 mph37%29.92 "HgN/A
12:50 pm82 °FPassing clouds.6 mph40%29.92 "HgN/A
12:20 pm81 °FSunny.5 mph45%29.92 "Hg10 mi
11:50 am79 °FPassing clouds.7 mph42%29.92 "HgN/A
11:20 am79 °FPassing clouds.6 mph45%29.92 "HgN/A
10:20 am79 °FPassing clouds.5 mph48%29.92 "HgN/A
9:50 am75 °FPassing clouds.3 mph57%29.92 "HgN/A
9:20 am75 °FSunny.2 mph61%29.95 "Hg10 mi
8:50 am73 °FPassing clouds.3 mph65%29.92 "HgN/A
8:20 am70 °FPassing clouds.3 mph73%29.92 "HgN/A
7:20 am66 °FSunny.3 mph83%29.92 "Hg10 mi
6:50 am66 °FPassing clouds.3 mph78%29.92 "HgN/A
6:20 am63 °FSunny.3 mph83%29.92 "Hg10 mi
5:50 am59 °FSunny.3 mph94%29.95 "Hg10 mi
5:20 am59 °FSunny.2 mph94%29.95 "Hg10 mi
4:50 am59 °FClear.2 mph94%29.92 "Hg10 mi
4:20 am61 °FClear.2 mph88%29.92 "Hg10 mi
3:50 am61 °FClear.1 mph88%29.95 "Hg10 mi
3:20 am61 °FClear.5 mph88%29.92 "Hg10 mi
2:50 am63 °FClear.3 mph83%29.92 "Hg10 mi
2:20 am63 °FClear.3 mph83%29.95 "Hg10 mi
1:50 am63 °FClear.2 mph83%29.92 "Hg10 mi
1:20 am63 °FClear.2 mph83%29.92 "Hg10 mi
12:50 am64 °FClear.2 mph78%29.95 "Hg10 mi
12:20 am64 °FClear.2 mph78%29.95 "Hg10 mi
11:50 pm
Sun, Jul 14
64 °FClear.3 mph78%29.95 "Hg10 mi
11:20 pm64 °FPassing clouds.3 mph78%29.95 "HgN/A
Weather by CustomWeather, © 2024

See weather overview